Time;durP1;ratioP1;P1;durP2;ratioP2;P2;SDS_P1;SDS_P2;PMS_P1;PMS_P2;Temp;Humidity;BMP_temperature;BMP_pressure;BME280_temperature;BME280_humidity;BME280_pressure;Samples;Min_cycle;Max_cycle;Signal;HPM_P1;HPM_P2
2022/02/23 00:01:26;;;;;;;6.00;1.58;;;11.10;58.10;;;;;;5054479;28;20029;-71
2022/02/23 00:03:52;;;;;;;8.75;1.90;;;11.00;58.00;;;;;;5054351;28;20475;-72
2022/02/23 00:06:19;;;;;;;6.75;2.08;;;11.10;58.00;;;;;;5036536;28;20504;-72
2022/02/23 00:08:45;;;;;;;5.80;2.08;;;11.10;57.90;;;;;;5054180;28;20025;-71
2022/02/23 00:11:15;;;;;;;7.32;1.83;;;11.10;58.00;;;;;;5054327;28;20029;-71
2022/02/23 00:13:41;;;;;;;6.70;2.30;;;11.10;58.00;;;;;;5054391;28;20029;-71
2022/02/23 00:16:07;;;;;;;7.97;1.92;;;11.10;58.20;;;;;;5062890;28;20028;-71
2022/02/23 00:18:33;;;;;;;5.40;1.52;;;11.10;58.30;;;;;;5073378;28;20033;-71
2022/02/23 00:20:59;;;;;;;8.13;1.77;;;11.10;58.30;;;;;;5056049;28;20086;-72
2022/02/23 00:23:24;;;;;;;11.23;2.25;;;11.00;58.30;;;;;;5072825;28;20024;-72
2022/02/23 00:25:50;;;;;;;10.75;2.20;;;11.00;58.30;;;;;;5074054;28;20021;-71
2022/02/23 00:28:16;;;;;;;5.75;1.90;;;11.10;58.40;;;;;;5072284;28;20032;-71
2022/02/23 00:30:42;;;;;;;4.68;1.50;;;11.10;58.40;;;;;;5073888;28;20044;-71
2022/02/23 00:33:09;;;;;;;6.57;1.65;;;11.10;58.40;;;;;;5055959;28;20036;-71
2022/02/23 00:35:35;;;;;;;5.72;1.35;;;11.00;58.30;;;;;;5073410;28;20044;-71
2022/02/23 00:38:02;;;;;;;7.35;1.48;;;11.10;58.30;;;;;;5073818;28;20028;-71
2022/02/23 00:40:28;;;;;;;5.25;1.40;;;11.10;58.30;;;;;;5065789;28;20542;-71
2022/02/23 00:42:56;;;;;;;7.18;1.95;;;11.10;58.20;;;;;;5053820;28;20060;-72
2022/02/23 00:45:22;;;;;;;6.72;1.50;;;11.10;58.20;;;;;;5057398;28;20036;-71
2022/02/23 00:47:48;;;;;;;6.63;1.63;;;11.20;58.10;;;;;;5053678;28;20029;-72
2022/02/23 00:50:14;;;;;;;6.47;1.80;;;11.10;58.10;;;;;;5053240;28;20036;-73
2022/02/23 00:52:40;;;;;;;5.28;1.50;;;11.10;58.20;;;;;;5053290;28;20036;-71
2022/02/23 00:55:06;;;;;;;9.07;2.22;;;11.10;58.20;;;;;;5053534;28;20411;-73
2022/02/23 00:57:32;;;;;;;7.68;1.75;;;11.20;58.20;;;;;;5035544;28;20425;-71
2022/02/23 00:59:58;;;;;;;7.88;1.55;;;11.10;58.20;;;;;;5035568;28;20032;-71
2022/02/23 01:02:27;;;;;;;7.88;2.17;;;11.10;58.20;;;;;;5035459;28;20044;-71
2022/02/23 01:04:53;;;;;;;7.65;1.88;;;11.10;58.30;;;;;;5035193;28;20460;-71
2022/02/23 01:07:18;;;;;;;6.40;1.30;;;11.10;58.40;;;;;;5035481;28;20020;-71
2022/02/23 01:09:45;;;;;;;6.55;1.60;;;11.10;58.50;;;;;;5053245;28;20021;-72
2022/02/23 01:12:11;;;;;;;6.35;1.67;;;11.10;58.50;;;;;;5036895;28;20024;-71
2022/02/23 01:14:37;;;;;;;2.85;1.10;;;11.10;58.40;;;;;;5053228;28;20114;-71
2022/02/23 01:17:04;;;;;;;5.43;1.65;;;11.10;58.30;;;;;;5053481;28;20025;-71
2022/02/23 01:19:30;;;;;;;4.45;1.10;;;11.10;58.40;;;;;;5053260;28;20025;-71
2022/02/23 01:21:56;;;;;;;5.13;1.17;;;11.10;58.40;;;;;;5035080;28;20101;-72
2022/02/23 01:24:22;;;;;;;5.20;1.27;;;11.10;58.30;;;;;;5052809;28;20524;-71
2022/02/23 01:26:49;;;;;;;4.05;1.33;;;11.10;58.40;;;;;;5052774;28;20147;-71
2022/02/23 01:29:14;;;;;;;6.32;2.42;;;11.10;58.70;;;;;;5050878;28;20036;-71
2022/02/23 01:31:40;;;;;;;5.00;1.70;;;11.10;58.80;;;;;;5051629;28;20044;-71
2022/02/23 01:34:06;;;;;;;4.10;1.38;;;11.10;58.70;;;;;;5068343;28;20057;-71
2022/02/23 01:36:32;;;;;;;2.78;0.95;;;11.10;58.90;;;;;;5073001;28;20029;-72
2022/02/23 01:38:58;;;;;;;7.85;1.73;;;11.10;58.90;;;;;;5072666;28;20029;-71
2022/02/23 01:41:24;;;;;;;7.07;1.45;;;11.10;58.90;;;;;;5070492;28;20048;-71
2022/02/23 01:43:50;;;;;;;5.18;1.27;;;11.00;59.00;;;;;;5059070;28;20029;-71
2022/02/23 01:46:17;;;;;;;6.70;1.35;;;11.00;59.10;;;;;;5034962;28;20465;-71
2022/02/23 01:48:43;;;;;;;3.08;1.02;;;11.00;59.00;;;;;;5050467;28;20028;-71
2022/02/23 01:51:10;;;;;;;3.05;1.30;;;11.10;59.20;;;;;;5072863;28;20056;-72
2022/02/23 01:53:36;;;;;;;5.97;1.10;;;11.00;59.10;;;;;;5063828;28;20033;-71
2022/02/23 01:56:03;;;;;;;8.05;1.45;;;11.00;59.10;;;;;;5072809;28;20024;-71
2022/02/23 01:58:29;;;;;;;6.00;1.63;;;11.00;59.20;;;;;;5072723;28;20025;-73
2022/02/23 02:00:56;;;;;;;5.47;1.17;;;11.00;59.40;;;;;;5054731;28;20043;-73
2022/02/23 02:03:23;;;;;;;2.47;1.00;;;10.90;59.40;;;;;;5049676;28;20033;-72
2022/02/23 02:05:49;;;;;;;4.22;1.55;;;10.90;59.60;;;;;;5038864;28;20075;-71
2022/02/23 02:08:15;;;;;;;6.95;1.30;;;10.90;59.70;;;;;;5063441;28;20465;-71
2022/02/23 02:10:41;;;;;;;4.47;1.40;;;10.90;60.40;;;;;;5058753;28;20028;-71
2022/02/23 02:13:07;;;;;;;4.78;1.08;;;10.90;61.10;;;;;;5055230;28;20068;-72
2022/02/23 02:15:33;;;;;;;4.88;1.30;;;10.90;61.90;;;;;;5038410;28;20025;-72
2022/02/23 02:17:59;;;;;;;4.22;1.23;;;10.90;62.40;;;;;;5056366;28;20029;-73
2022/02/23 02:20:25;;;;;;;4.28;1.27;;;10.80;62.60;;;;;;5058117;28;20032;-73
2022/02/23 02:22:51;;;;;;;2.63;1.05;;;10.80;62.90;;;;;;5055126;28;20027;-74
2022/02/23 02:25:17;;;;;;;4.97;1.05;;;10.70;63.10;;;;;;5076332;28;20024;-74
2022/02/23 02:27:43;;;;;;;4.55;1.40;;;10.70;63.20;;;;;;5054164;28;20052;-74
2022/02/23 02:30:09;;;;;;;5.22;1.27;;;10.70;63.40;;;;;;5056393;28;20048;-74
2022/02/23 02:32:35;;;;;;;6.35;1.10;;;10.70;63.60;;;;;;5056273;28;20056;-74
2022/02/23 02:35:01;;;;;;;4.25;1.00;;;10.70;63.70;;;;;;5038073;28;20460;-74
2022/02/23 02:37:27;;;;;;;7.70;1.42;;;10.70;63.80;;;;;;5038283;28;20025;-74
2022/02/23 02:39:53;;;;;;;3.97;1.73;;;10.70;63.80;;;;;;5056059;28;20021;-75
2022/02/23 02:42:19;;;;;;;4.78;1.30;;;10.70;63.80;;;;;;5067243;28;20082;-75
2022/02/23 02:44:45;;;;;;;5.93;1.23;;;10.70;63.90;;;;;;5058139;28;20376;-75
2022/02/23 02:47:12;;;;;;;4.55;1.30;;;10.70;63.90;;;;;;5058023;28;20089;-75
2022/02/23 02:49:38;;;;;;;5.45;1.20;;;10.70;64.00;;;;;;5076020;28;20033;-76
2022/02/23 02:52:05;;;;;;;4.65;1.00;;;10.70;64.00;;;;;;5075883;28;20036;-76
2022/02/23 02:54:31;;;;;;;5.60;1.10;;;10.60;64.20;;;;;;5076212;28;20029;-76
2022/02/23 02:56:57;;;;;;;5.13;1.45;;;10.60;64.30;;;;;;5057889;28;20112;-77
2022/02/23 02:59:23;;;;;;;4.22;1.27;;;10.60;64.40;;;;;;5055936;28;20089;-77
2022/02/23 03:01:48;;;;;;;2.45;0.90;;;10.60;64.40;;;;;;5055678;28;20029;-78
2022/02/23 03:04:14;;;;;;;3.30;1.10;;;10.60;64.40;;;;;;5037621;28;20036;-78
2022/02/23 03:06:40;;;;;;;4.63;1.25;;;10.60;64.60;;;;;;5037648;28;20495;-79
2022/02/23 03:09:07;;;;;;;2.85;1.10;;;10.60;64.60;;;;;;5055446;28;20055;-79
2022/02/23 03:11:34;;;;;;;7.00;1.48;;;10.70;64.80;;;;;;5055535;28;20033;-80
2022/02/23 03:14:00;;;;;;;5.22;1.60;;;10.70;64.90;;;;;;5055521;28;20349;-81
2022/02/23 03:16:26;;;;;;;7.75;1.55;;;10.60;64.70;;;;;;5055841;28;20020;-79
2022/02/23 03:18:52;;;;;;;4.95;1.52;;;10.70;64.90;;;;;;5055128;28;20032;-79
2022/02/23 03:21:18;;;;;;;4.07;1.42;;;10.70;64.90;;;;;;5055022;28;20448;-78
2022/02/23 03:23:45;;;;;;;4.32;1.45;;;10.70;64.90;;;;;;5037344;28;20563;-76
2022/02/23 03:26:14;;;;;;;5.25;1.20;;;10.60;64.80;;;;;;5072598;28;20460;-77
2022/02/23 03:28:41;;;;;;;2.92;1.02;;;10.70;64.80;;;;;;5057215;28;20029;-77
2022/02/23 03:31:09;;;;;;;6.25;1.20;;;10.70;64.90;;;;;;5056524;28;20033;-77
2022/02/23 03:33:42;;;;;;;4.82;1.50;;;10.70;65.70;;;;;;5075114;28;20464;-76
2022/02/23 03:36:12;;;;;;;4.82;1.20;;;10.70;65.00;;;;;;5073810;28;20135;-76
2022/02/23 03:38:39;;;;;;;3.85;1.20;;;10.70;65.60;;;;;;5075086;28;20024;-76
2022/02/23 03:41:05;;;;;;;2.30;0.98;;;10.70;64.90;;;;;;5056764;28;20090;-77
2022/02/23 03:43:31;;;;;;;4.35;1.17;;;10.70;64.80;;;;;;5056348;28;20025;-76
2022/02/23 03:45:57;;;;;;;4.65;1.40;;;10.70;64.90;;;;;;5056567;28;20037;-76
2022/02/23 03:48:23;;;;;;;3.10;1.40;;;10.80;64.90;;;;;;5056891;28;20106;-76
2022/02/23 03:50:48;;;;;;;5.13;1.13;;;10.70;64.90;;;;;;5074791;28;20119;-76
2022/02/23 03:53:14;;;;;;;3.15;1.13;;;10.80;64.90;;;;;;5074802;28;20029;-75
2022/02/23 03:55:41;;;;;;;2.85;1.30;;;10.80;64.90;;;;;;5061800;28;20032;-76
2022/02/23 03:58:09;;;;;;;4.38;1.00;;;10.80;65.00;;;;;;5062066;28;20031;-76
2022/02/23 04:00:35;;;;;;;3.63;1.40;;;10.80;64.90;;;;;;5053523;28;20093;-75
2022/02/23 04:03:01;;;;;;;4.05;1.30;;;10.80;65.10;;;;;;5053276;28;20056;-76
2022/02/23 04:05:26;;;;;;;4.22;1.83;;;10.80;65.20;;;;;;5054919;28;20457;-77
2022/02/23 04:07:52;;;;;;;5.35;1.60;;;10.80;65.10;;;;;;5036605;28;20025;-77
2022/02/23 04:10:19;;;;;;;4.40;1.40;;;10.80;65.10;;;;;;5053173;28;20171;-77
2022/02/23 04:12:46;;;;;;;8.55;1.15;;;10.80;65.10;;;;;;5042738;28;20025;-78
2022/02/23 04:15:16;;;;;;;4.53;1.23;;;10.80;65.00;;;;;;5036509;28;20350;-77
2022/02/23 04:17:42;;;;;;;6.05;1.30;;;10.80;65.10;;;;;;5054632;28;20105;-78
2022/02/23 04:20:09;;;;;;;2.97;1.10;;;10.80;65.20;;;;;;5054101;28;20040;-77
2022/02/23 04:22:36;;;;;;;4.93;1.30;;;10.80;65.30;;;;;;5053914;28;20047;-78
2022/02/23 04:25:02;;;;;;;8.00;1.60;;;10.80;65.30;;;;;;5052245;28;20469;-77
2022/02/23 04:27:27;;;;;;;8.60;2.92;;;10.80;65.40;;;;;;5061934;28;20031;-77
2022/02/23 04:29:53;;;;;;;6.40;1.92;;;10.80;65.30;;;;;;5051409;28;20103;-77
2022/02/23 04:32:19;;;;;;;5.85;1.50;;;10.80;65.40;;;;;;5054271;28;20033;-77
2022/02/23 04:34:45;;;;;;;5.57;1.30;;;10.90;65.60;;;;;;5044714;28;20483;-77
2022/02/23 04:37:11;;;;;;;6.40;1.17;;;10.90;65.60;;;;;;5073631;28;20024;-77
2022/02/23 04:39:36;;;;;;;3.15;1.20;;;10.90;65.60;;;;;;5073436;28;20021;-77
2022/02/23 04:42:02;;;;;;;5.32;1.35;;;10.90;65.50;;;;;;5071652;28;20032;-77
2022/02/23 04:44:28;;;;;;;2.80;1.05;;;10.90;65.40;;;;;;5053831;28;20025;-76
2022/02/23 04:46:55;;;;;;;2.78;1.33;;;10.90;65.40;;;;;;5062707;28;20035;-77
2022/02/23 04:49:21;;;;;;;9.85;1.77;;;10.90;65.20;;;;;;5046774;28;20036;-77
2022/02/23 04:51:46;;;;;;;7.97;1.70;;;10.80;65.10;;;;;;5073799;28;20029;-77
2022/02/23 04:54:12;;;;;;;4.18;1.25;;;10.80;65.20;;;;;;5072229;28;20170;-77
2022/02/23 04:56:39;;;;;;;7.00;1.30;;;10.70;65.30;;;;;;5073734;28;20020;-77
2022/02/23 04:59:06;;;;;;;5.30;1.92;;;10.70;65.50;;;;;;5073703;28;20021;-77
2022/02/23 05:01:31;;;;;;;5.70;1.40;;;10.70;65.70;;;;;;5055578;28;20032;-77
2022/02/23 05:03:57;;;;;;;4.25;0.93;;;10.70;65.90;;;;;;5068980;28;20025;-77
2022/02/23 05:06:23;;;;;;;2.92;1.02;;;10.70;66.00;;;;;;5052364;28;20025;-77
2022/02/23 05:08:48;;;;;;;6.20;1.35;;;10.70;66.30;;;;;;5053572;28;20468;-77
2022/02/23 05:11:15;;;;;;;6.07;1.65;;;10.70;66.40;;;;;;5035559;28;20090;-77
2022/02/23 05:13:41;;;;;;;8.43;1.35;;;10.70;66.40;;;;;;5053202;28;20540;-77
2022/02/23 05:16:07;;;;;;;4.00;1.15;;;10.70;66.40;;;;;;5053239;28;20100;-76
2022/02/23 05:18:33;;;;;;;3.85;1.10;;;10.80;66.40;;;;;;5070811;28;20533;-76
2022/02/23 05:21:00;;;;;;;4.93;1.25;;;10.80;66.40;;;;;;5071329;28;20043;-76
2022/02/23 05:23:27;;;;;;;7.10;1.63;;;10.80;66.30;;;;;;5055664;28;20029;-76
2022/02/23 05:25:53;;;;;;;6.95;1.48;;;10.90;66.40;;;;;;5073536;28;20372;-76
2022/02/23 05:28:19;;;;;;;3.60;1.15;;;10.90;66.30;;;;;;5055295;28;20021;-76
2022/02/23 05:30:46;;;;;;;4.65;1.45;;;10.90;66.20;;;;;;5055181;28;20115;-76
2022/02/23 05:33:12;;;;;;;4.68;1.45;;;11.00;66.20;;;;;;5054975;28;20032;-77
2022/02/23 05:35:39;;;;;;;5.93;1.80;;;11.00;66.10;;;;;;5054745;28;20036;-76
2022/02/23 05:38:05;;;;;;;2.17;0.85;;;11.00;66.00;;;;;;5073161;28;20028;-76
2022/02/23 05:40:31;;;;;;;4.10;1.10;;;11.00;65.90;;;;;;5055168;28;20090;-76
2022/02/23 05:42:57;;;;;;;3.83;1.10;;;11.00;65.90;;;;;;5055167;28;20032;-77
2022/02/23 05:45:23;;;;;;;2.85;1.17;;;11.10;65.90;;;;;;5064664;28;20362;-76
2022/02/23 05:47:49;;;;;;;3.05;1.15;;;11.10;65.80;;;;;;5052866;28;20021;-76
2022/02/23 05:50:15;;;;;;;6.82;1.25;;;11.10;65.40;;;;;;5053100;28;20076;-76
2022/02/23 05:52:41;;;;;;;3.85;0.90;;;11.00;64.90;;;;;;5035178;28;20029;-77
2022/02/23 05:55:09;;;;;;;2.55;1.08;;;11.00;64.50;;;;;;5034884;28;20028;-76
2022/02/23 05:57:34;;;;;;;2.28;0.90;;;10.90;64.40;;;;;;5046452;28;20032;-76
2022/02/23 06:00:03;;;;;;;2.78;1.02;;;10.90;64.30;;;;;;5055098;28;20021;-77
2022/02/23 06:02:28;;;;;;;2.92;0.90;;;10.80;64.10;;;;;;5054915;28;20039;-76
2022/02/23 06:04:54;;;;;;;4.53;1.20;;;10.80;64.10;;;;;;5073003;28;20024;-76
2022/02/23 06:07:20;;;;;;;3.97;0.93;;;10.80;64.00;;;;;;5069467;28;20024;-77
2022/02/23 06:09:46;;;;;;;3.58;0.80;;;10.70;63.90;;;;;;5073280;28;20032;-76
2022/02/23 06:12:12;;;;;;;2.13;0.90;;;10.70;63.70;;;;;;5072973;28;20032;-76
2022/02/23 06:14:37;;;;;;;3.25;1.08;;;10.60;63.70;;;;;;5073302;28;20053;-77
2022/02/23 06:17:03;;;;;;;2.63;0.60;;;10.60;63.60;;;;;;5073142;28;20082;-77
2022/02/23 06:19:30;;;;;;;5.70;0.93;;;10.60;63.50;;;;;;5071252;28;20021;-76
2022/02/23 06:21:55;;;;;;;2.70;0.68;;;10.50;62.80;;;;;;5054515;28;20036;-77
2022/02/23 06:24:22;;;;;;;4.22;0.82;;;10.50;62.60;;;;;;5054856;28;20524;-77
2022/02/23 06:26:47;;;;;;;3.30;0.77;;;10.50;62.20;;;;;;5072681;28;20052;-77
2022/02/23 06:29:14;;;;;;;5.82;1.10;;;10.40;62.10;;;;;;5054492;28;20035;-76
2022/02/23 06:31:39;;;;;;;1.45;0.70;;;10.40;61.90;;;;;;5054626;28;20036;-77
2022/02/23 06:34:05;;;;;;;5.20;0.77;;;10.30;61.50;;;;;;5067152;28;20095;-77
2022/02/23 06:36:31;;;;;;;4.80;0.65;;;10.20;61.10;;;;;;5046320;28;20036;-77
2022/02/23 06:38:58;;;;;;;3.08;1.00;;;10.10;61.30;;;;;;5053814;28;20028;-77
2022/02/23 06:41:26;;;;;;;2.35;1.08;;;10.10;61.40;;;;;;5060879;28;20044;-77
2022/02/23 06:43:53;;;;;;;5.05;0.85;;;10.10;61.60;;;;;;5034633;28;20029;-77
2022/02/23 06:46:20;;;;;;;2.35;0.82;;;10.00;61.80;;;;;;5052347;28;20029;-77
2022/02/23 06:48:47;;;;;;;1.63;0.80;;;10.00;61.90;;;;;;5064973;28;20028;-77
2022/02/23 06:51:18;;;;;;;5.10;0.95;;;10.00;62.10;;;;;;5058324;28;20040;-78
2022/02/23 06:53:48;;;;;;;2.15;0.85;;;10.00;62.10;;;;;;5076546;28;20107;-78
2022/02/23 06:56:14;;;;;;;1.30;0.77;;;10.00;62.30;;;;;;5076218;28;20472;-78
2022/02/23 06:58:49;;;;;;;3.20;0.90;;;10.00;62.40;;;;;;5047907;28;20029;-78
2022/02/23 07:01:18;;;;;;;2.13;0.65;;;9.90;62.50;;;;;;5056005;28;20037;-78
2022/02/23 07:03:45;;;;;;;3.45;1.02;;;10.00;62.80;;;;;;5037925;28;20029;-78
2022/02/23 07:06:15;;;;;;;4.65;1.02;;;10.00;63.00;;;;;;5055951;28;20043;-78
2022/02/23 07:08:45;;;;;;;1.63;0.80;;;10.00;63.10;;;;;;5055928;28;20040;-78
2022/02/23 07:11:11;;;;;;;3.63;1.10;;;10.00;63.20;;;;;;5038068;28;20033;-79
2022/02/23 07:13:36;;;;;;;3.20;0.90;;;10.10;63.40;;;;;;5062233;28;20021;-78
2022/02/23 07:16:02;;;;;;;1.23;0.77;;;10.10;63.60;;;;;;5069473;28;20027;-78
2022/02/23 07:18:28;;;;;;;2.17;0.85;;;10.10;63.60;;;;;;5055083;28;20039;-79
2022/02/23 07:20:55;;;;;;;3.03;0.80;;;10.20;63.70;;;;;;5055533;28;20044;-78
2022/02/23 07:23:21;;;;;;;5.22;0.95;;;10.10;63.50;;;;;;5055273;28;20028;-78
2022/02/23 07:25:50;;;;;;;3.35;1.00;;;10.20;63.40;;;;;;5060569;28;20368;-79
2022/02/23 07:28:16;;;;;;;5.78;1.08;;;10.20;63.20;;;;;;5050709;28;20124;-79
2022/02/23 07:30:42;;;;;;;4.07;0.90;;;10.30;63.20;;;;;;5054092;28;20574;-80
2022/02/23 07:33:10;;;;;;;4.90;1.20;;;10.30;62.70;;;;;;5057180;28;20532;-80
2022/02/23 07:35:36;;;;;;;5.07;1.00;;;10.30;62.30;;;;;;5071436;28;20052;-80
2022/02/23 07:38:05;;;;;;;7.97;1.42;;;10.30;62.10;;;;;;5072114;28;20457;-78
2022/02/23 07:40:31;;;;;;;6.32;1.13;;;10.40;62.00;;;;;;5075362;28;20097;-78
2022/02/23 07:43:00;;;;;;;3.80;1.08;;;10.40;61.80;;;;;;5069199;28;20077;-79
2022/02/23 07:45:28;;;;;;;12.02;1.50;;;10.40;61.30;;;;;;5073491;28;20051;-79
2022/02/23 07:47:54;;;;;;;4.25;1.05;;;10.50;61.30;;;;;;5073313;28;20457;-80
2022/02/23 07:50:20;;;;;;;3.58;1.10;;;10.50;60.70;;;;;;5073700;28;20097;-81
2022/02/23 07:52:50;;;;;;;3.83;1.05;;;10.60;60.70;;;;;;5055936;28;20376;-80
2022/02/23 07:55:17;;;;;;;3.67;0.98;;;10.60;60.40;;;;;;5063987;28;20028;-80
2022/02/23 07:57:43;;;;;;;5.70;1.33;;;10.60;60.20;;;;;;5074758;28;20475;-79
2022/02/23 08:00:10;;;;;;;6.97;1.20;;;10.70;60.10;;;;;;5092565;28;20012;-80
2022/02/23 08:02:36;;;;;;;4.72;1.38;;;10.80;60.20;;;;;;5070172;28;20388;-79
2022/02/23 08:05:03;;;;;;;7.30;1.27;;;10.80;60.20;;;;;;5077947;28;20185;-78
2022/02/23 08:07:29;;;;;;;3.90;1.10;;;10.90;60.50;;;;;;5093619;28;20490;-80
2022/02/23 08:09:55;;;;;;;9.32;1.42;;;10.90;60.20;;;;;;5080598;28;20028;-78
2022/02/23 08:12:21;;;;;;;3.25;1.10;;;11.00;60.00;;;;;;5075273;28;20028;-78
2022/02/23 08:14:47;;;;;;;8.48;1.50;;;11.10;60.00;;;;;;5076454;28;20038;-78
2022/02/23 08:19:58;;;;;;;4.53;1.30;;;11.10;59.50;;;;;;5094807;28;20027;-74
2022/02/23 08:22:28;;;;;;;7.80;1.40;;;11.10;59.00;;;;;;5086941;28;20119;-74
2022/02/23 08:24:55;;;;;;;7.63;1.30;;;11.20;59.10;;;;;;5087424;28;20041;-73
2022/02/23 08:27:23;;;;;;;8.43;1.48;;;11.30;59.10;;;;;;5071447;28;20036;-73
2022/02/23 08:29:50;;;;;;;3.28;1.15;;;11.40;59.00;;;;;;5078746;28;20523;-73
2022/02/23 08:32:18;;;;;;;8.90;2.67;;;11.50;59.10;;;;;;5068871;28;20077;-73
2022/02/23 08:34:45;;;;;;;9.90;2.05;;;11.60;59.20;;;;;;5075680;28;20058;-73
2022/02/23 08:37:13;;;;;;;3.42;1.15;;;11.60;58.70;;;;;;5073686;28;20459;-73
2022/02/23 08:39:40;;;;;;;5.43;1.20;;;11.70;58.80;;;;;;5058277;28;20029;-73
2022/02/23 08:42:08;;;;;;;4.68;1.10;;;11.80;58.50;;;;;;5055211;28;20033;-72
2022/02/23 08:44:34;;;;;;;5.70;1.25;;;11.90;58.50;;;;;;5074126;28;20028;-72
2022/02/23 08:47:00;;;;;;;4.78;1.50;;;12.00;57.60;;;;;;5093950;28;20034;-73
2022/02/23 08:49:26;;;;;;;2.67;0.93;;;12.10;57.40;;;;;;5061370;28;20389;-72
2022/02/23 08:51:52;;;;;;;4.28;1.20;;;12.10;57.40;;;;;;5072556;28;20032;-72
2022/02/23 08:54:20;;;;;;;4.78;1.08;;;12.20;57.50;;;;;;5093509;28;20078;-73
2022/02/23 08:56:46;;;;;;;5.97;1.15;;;12.40;57.30;;;;;;5083353;28;20081;-72
2022/02/23 08:59:13;;;;;;;4.22;1.05;;;12.50;56.30;;;;;;5055515;28;20123;-74
2022/02/23 09:01:39;;;;;;;7.78;1.98;;;12.60;55.90;;;;;;5073535;28;20036;-72
2022/02/23 09:04:05;;;;;;;6.88;1.80;;;12.60;55.20;;;;;;5067250;28;20032;-72
2022/02/23 09:06:33;;;;;;;7.78;1.85;;;12.70;55.20;;;;;;5064459;28;20427;-72
2022/02/23 09:08:59;;;;;;;8.45;1.95;;;12.70;55.00;;;;;;5087607;28;20051;-72
2022/02/23 09:11:26;;;;;;;2.38;1.00;;;12.70;54.80;;;;;;5106147;28;20463;-74
2022/02/23 09:13:52;;;;;;;9.05;3.10;;;12.70;53.50;;;;;;5068214;28;20423;-73
2022/02/23 09:16:18;;;;;;;4.65;1.90;;;12.80;54.40;;;;;;5084037;28;20036;-72
2022/02/23 09:18:45;;;;;;;7.80;2.22;;;12.80;54.30;;;;;;5056017;28;20388;-72
2022/02/23 09:21:11;;;;;;;4.20;1.35;;;13.00;54.30;;;;;;5090767;28;20034;-72
2022/02/23 09:23:37;;;;;;;5.25;1.70;;;13.00;52.80;;;;;;5082277;28;20143;-72
2022/02/23 09:26:05;;;;;;;4.50;1.00;;;13.00;52.90;;;;;;5077932;28;20139;-70
2022/02/23 09:28:40;;;;;;;5.53;1.00;;;13.00;52.60;;;;;;5055140;28;20459;-72
2022/02/23 09:31:07;;;;;;;6.35;1.10;;;13.10;53.50;;;;;;5086064;28;20024;-76
2022/02/23 09:33:36;;;;;;;6.85;1.75;;;13.10;52.90;;;;;;5056484;28;20468;-70
2022/02/23 09:36:08;;;;;;;7.45;2.03;;;13.10;51.70;;;;;;5082346;28;20467;-70
2022/02/23 09:38:34;;;;;;;6.88;1.55;;;13.00;52.20;;;;;;5075234;28;20289;-73
2022/02/23 09:41:03;;;;;;;8.05;1.60;;;13.00;52.10;;;;;;5079149;28;20705;-72
2022/02/23 09:43:29;;;;;;;11.75;4.40;;;13.00;52.10;;;;;;5073895;28;20039;-75
2022/02/23 09:45:56;;;;;;;5.25;1.30;;;12.90;51.70;;;;;;5093728;28;20020;-74
2022/02/23 09:48:27;;;;;;;7.85;1.30;;;12.90;51.90;;;;;;5079657;28;20024;-75
2022/02/23 09:50:53;;;;;;;8.40;1.58;;;12.80;52.80;;;;;;5078807;28;20036;-73
2022/02/23 09:53:20;;;;;;;7.18;1.50;;;12.80;53.10;;;;;;5067948;28;20039;-69
2022/02/23 09:55:47;;;;;;;8.07;1.60;;;12.80;52.50;;;;;;5091770;28;20162;-69
2022/02/23 09:58:13;;;;;;;9.85;2.00;;;12.80;52.60;;;;;;5086235;28;20375;-70
2022/02/23 10:00:39;;;;;;;5.53;1.83;;;12.80;52.40;;;;;;5083435;28;20032;-70
2022/02/23 10:03:05;;;;;;;8.88;1.58;;;12.90;53.30;;;;;;5090827;28;20028;-69
2022/02/23 10:05:43;;;;;;;6.45;1.38;;;13.00;53.00;;;;;;5092730;28;20348;-70
2022/02/23 10:08:11;;;;;;;7.18;1.40;;;13.00;52.10;;;;;;5089340;28;20020;-68
2022/02/23 10:10:41;;;;;;;5.68;1.45;;;13.10;51.70;;;;;;5061273;28;20082;-73
2022/02/23 10:13:09;;;;;;;4.85;1.67;;;13.10;51.60;;;;;;5065712;28;20110;-75
2022/02/23 10:15:40;;;;;;;5.13;1.27;;;13.20;52.40;;;;;;5074315;28;20032;-73
2022/02/23 10:18:11;;;;;;;3.15;1.08;;;13.20;51.50;;;;;;5086805;28;20024;-73
2022/02/23 10:20:39;;;;;;;9.50;1.45;;;13.20;52.00;;;;;;5082894;28;20569;-75
2022/02/23 10:23:15;;;;;;;4.60;1.17;;;13.20;51.00;;;;;;5066695;28;20028;-68
2022/02/23 10:25:43;;;;;;;5.10;1.52;;;13.20;51.40;;;;;;5088557;28;20514;-78
2022/02/23 10:28:15;;;;;;;8.02;1.75;;;13.30;50.70;;;;;;5091668;28;20059;-72
2022/02/23 10:30:50;;;;;;;7.65;1.58;;;13.40;51.10;;;;;;5076470;28;20086;-72
2022/02/23 10:33:23;;;;;;;7.40;1.92;;;13.40;50.30;;;;;;5076594;28;20036;-76
2022/02/23 10:35:53;;;;;;;6.80;1.17;;;13.40;50.70;;;;;;5073693;28;20036;-77
2022/02/23 10:38:31;;;;;;;6.07;1.25;;;13.40;50.70;;;;;;5087232;28;20025;-71
2022/02/23 10:40:58;;;;;;;8.88;1.50;;;13.50;50.90;;;;;;5059442;28;20052;-70
2022/02/23 10:43:47;;;;;;;10.52;1.90;;;13.50;50.30;;;;;;5061338;28;20042;-69
2022/02/23 10:46:16;;;;;;;7.30;1.23;;;13.50;51.00;;;;;;5076199;28;20020;-68
2022/02/23 10:48:48;;;;;;;5.72;1.15;;;13.60;50.30;;;;;;5069966;28;20024;-69
2022/02/23 10:51:27;;;;;;;6.82;1.40;;;13.70;51.20;;;;;;5076629;28;20038;-69
2022/02/23 10:54:01;;;;;;;4.32;1.20;;;13.80;50.30;;;;;;5075509;28;20108;-75
2022/02/23 10:56:30;;;;;;;3.13;1.20;;;13.90;50.00;;;;;;5093789;28;20024;-72
2022/02/23 10:59:12;;;;;;;6.97;1.73;;;14.00;49.60;;;;;;5075657;28;20060;-79
2022/02/23 11:01:40;;;;;;;5.40;1.30;;;14.10;48.20;;;;;;5071035;28;20097;-72
2022/02/23 11:04:07;;;;;;;11.50;1.48;;;14.10;48.10;;;;;;5075544;28;20031;-71
2022/02/23 11:06:34;;;;;;;7.25;1.27;;;14.10;47.60;;;;;;5085934;28;20028;-72
2022/02/23 11:09:01;;;;;;;6.63;2.08;;;14.10;47.80;;;;;;5089114;28;20533;-74
2022/02/23 11:11:28;;;;;;;9.07;1.67;;;14.10;47.30;;;;;;5064763;28;20431;-74
2022/02/23 11:14:00;;;;;;;3.78;1.10;;;14.10;47.30;;;;;;5085040;28;20126;-76
2022/02/23 11:16:28;;;;;;;4.70;1.23;;;14.10;47.40;;;;;;5078061;28;20089;-74
2022/02/23 11:18:58;;;;;;;8.38;1.85;;;14.10;47.70;;;;;;5070497;28;20025;-75
2022/02/23 11:21:25;;;;;;;5.20;1.17;;;14.20;47.10;;;;;;5057570;28;20038;-77
2022/02/23 11:23:56;;;;;;;6.20;1.58;;;14.20;47.10;;;;;;5062972;28;20086;-74
2022/02/23 11:26:24;;;;;;;6.07;1.25;;;14.20;46.10;;;;;;5071216;28;20391;-75
2022/02/23 11:29:06;;;;;;;5.45;1.45;;;14.20;45.60;;;;;;5070361;28;20032;-74
2022/02/23 11:31:36;;;;;;;2.72;1.15;;;14.10;46.60;;;;;;5057256;28;20040;-74
2022/02/23 11:34:04;;;;;;;5.78;1.30;;;14.10;46.10;;;;;;5061594;28;20041;-74
2022/02/23 11:36:34;;;;;;;9.93;1.50;;;14.10;46.00;;;;;;5075190;28;20027;-74
2022/02/23 11:39:15;;;;;;;7.80;1.45;;;14.00;46.00;;;;;;5057376;28;20029;-74
2022/02/23 11:41:46;;;;;;;6.65;1.45;;;14.00;46.00;;;;;;5057692;28;20081;-74
2022/02/23 11:44:16;;;;;;;5.25;1.63;;;13.90;46.00;;;;;;5057758;28;20112;-74
2022/02/23 11:46:51;;;;;;;5.88;1.67;;;13.90;45.90;;;;;;5042333;28;20036;-74
2022/02/23 11:49:17;;;;;;;5.10;1.40;;;13.90;45.70;;;;;;5056920;28;20032;-74
2022/02/23 11:51:44;;;;;;;7.57;1.45;;;13.90;46.10;;;;;;5075417;28;20047;-74
2022/02/23 11:54:14;;;;;;;6.90;1.30;;;14.00;45.40;;;;;;5052960;28;20033;-74
2022/02/23 11:56:49;;;;;;;7.07;1.77;;;14.10;45.90;;;;;;5066759;28;20029;-73
2022/02/23 11:59:44;;;;;;;5.30;1.30;;;14.10;44.70;;;;;;5065259;28;20025;-73
2022/02/23 12:02:12;;;;;;;8.85;1.88;;;14.20;44.50;;;;;;5075218;28;20033;-74
2022/02/23 12:04:49;;;;;;;8.60;1.30;;;14.20;44.60;;;;;;5040545;28;20040;-75
2022/02/23 12:07:15;;;;;;;6.05;1.50;;;14.30;44.80;;;;;;5063732;28;20033;-75
2022/02/23 12:09:45;;;;;;;4.05;1.38;;;14.40;45.00;;;;;;5057674;28;20103;-75
2022/02/23 12:12:30;;;;;;;7.63;1.42;;;14.50;44.90;;;;;;5054531;28;20481;-74
2022/02/23 12:14:56;;;;;;;;;;;14.70;44.90;;;;;;5050406;28;20472;-75
2022/02/23 12:18:02;;;;;;;4.95;1.77;;;14.80;46.10;;;;;;5041556;28;19909;-75
2022/02/23 12:20:36;;;;;;;5.20;1.23;;;14.90;43.80;;;;;;4993126;28;20398;-74
2022/02/23 12:23:03;;;;;;;3.22;1.00;;;14.90;43.40;;;;;;4992774;28;20034;-76
2022/02/23 12:25:48;;;;;;;5.97;1.50;;;14.90;42.80;;;;;;5029031;28;20107;-75
2022/02/23 12:28:17;;;;;;;;;;;14.90;42.80;;;;;;5049961;28;20033;-75
2022/02/23 12:30:59;;;;;;;8.02;2.05;;;14.90;44.40;;;;;;5036534;28;19916;-74
2022/02/23 12:33:25;;;;;;;8.02;1.10;;;14.80;42.90;;;;;;5067611;28;20033;-67
2022/02/23 12:35:53;;;;;;;4.82;1.25;;;14.70;43.40;;;;;;5063043;28;20045;-68
2022/02/23 12:38:50;;;;;;;4.50;1.42;;;14.70;43.60;;;;;;5059985;28;20472;-68
2022/02/23 12:41:22;;;;;;;5.80;1.17;;;14.60;43.40;;;;;;5055774;28;20102;-67
2022/02/23 12:44:04;;;;;;;10.82;2.00;;;14.40;43.40;;;;;;5067859;28;20081;-67
2022/02/23 12:46:33;;;;;;;7.18;1.20;;;14.30;43.40;;;;;;5056855;28;20033;-68
2022/02/23 12:48:58;;;;;;;8.45;1.70;;;14.20;43.60;;;;;;5078119;28;20086;-67
2022/02/23 12:51:25;;;;;;;7.85;1.83;;;14.10;43.70;;;;;;5091751;28;20036;-67
2022/02/23 12:53:53;;;;;;;6.72;1.63;;;14.10;43.90;;;;;;5083851;28;20060;-68